Hughesville, Maryland
Current Conditions -  °F | °C
As of 9:12 AM on Thursday 23 Oct 2014 (Local Time) from K2W6 Reporting Station
Overcast Overcast  
Wind Chill: 52°   Ceiling: 4100
Heat Index: 52°   Visibility: 10mi
Dew Point: 43°   Wind: 7mph
Humidity: 71%   Direction: 290°WNW
Pressure: 29.89"   Gusts: NA
Location:  38.53°N, 76.78°W
Report Text: K2W6 231312Z AUTO 29006KT 10SM OVC041 11/06 A2989 RMK AO1
Loading
Personal Weather Stations






























Interactive Weather Map
Tropical Storm Tracking
New forecast layout! Learn more

10-Day Weather Forecast

Advertisements
Track Severe Weather on mobile